createdAt,value
2023-05-12T00:00:15.283Z,14.04
2023-05-12T00:05:18.751Z,13.66
2023-05-12T00:10:21.080Z,13.59
2023-05-12T00:15:23.261Z,13.40
2023-05-12T00:20:24.933Z,13.64
2023-05-12T00:25:26.617Z,13.68
2023-05-12T00:30:28.240Z,13.24
2023-05-12T00:35:29.934Z,13.37
2023-05-12T00:40:31.592Z,13.23
2023-05-12T00:45:33.455Z,13.38
2023-05-12T00:50:35.160Z,13.10
2023-05-12T00:55:37.497Z,13.48
2023-05-12T01:00:39.751Z,13.61
2023-05-12T01:06:08.489Z,13.81
2023-05-12T01:11:10.718Z,13.65
2023-05-12T01:16:15.328Z,13.46
2023-05-12T01:21:18.088Z,13.41
2023-05-12T01:26:20.141Z,13.63
2023-05-12T01:31:22.320Z,13.45
2023-05-12T01:36:23.946Z,13.42
2023-05-12T01:41:26.016Z,13.29
2023-05-12T01:46:27.730Z,13.42
2023-05-12T01:51:33.217Z,13.37
2023-05-12T01:56:36.549Z,13.29
2023-05-12T02:01:38.255Z,13.16
2023-05-12T02:06:40.986Z,13.05
2023-05-12T02:11:42.632Z,13.08
2023-05-12T02:16:44.408Z,13.17
2023-05-12T02:21:46.287Z,12.79
2023-05-12T02:26:47.955Z,12.85
2023-05-12T02:31:49.690Z,12.90
2023-05-12T02:36:52.405Z,12.75
2023-05-12T02:41:54.221Z,12.77
2023-05-12T02:46:58.077Z,12.79
2023-05-12T02:51:59.690Z,12.66
2023-05-12T02:57:05.057Z,12.64
2023-05-12T03:02:07.155Z,12.75
2023-05-12T03:07:09.557Z,12.67
2023-05-12T03:12:11.289Z,12.58
2023-05-12T03:17:13.021Z,12.57
2023-05-12T03:22:14.941Z,12.72
2023-05-12T03:27:16.616Z,12.47
2023-05-12T03:32:18.290Z,12.50
2023-05-12T03:37:19.973Z,12.53
2023-05-12T03:42:21.738Z,12.56
2023-05-12T03:47:23.633Z,12.40
2023-05-12T03:52:25.452Z,12.43
2023-05-12T03:57:27.091Z,12.50
2023-05-12T04:02:29.084Z,12.53
2023-05-12T04:07:30.769Z,12.59
2023-05-12T04:12:32.870Z,12.38
2023-05-12T04:17:35.180Z,12.58
2023-05-12T04:22:36.853Z,12.79
2023-05-12T04:27:38.916Z,12.85
2023-05-12T04:32:41.328Z,12.99
2023-05-12T04:37:43.318Z,12.82
2023-05-12T04:42:45.237Z,13.50
2023-05-12T04:47:48.688Z,14.07
2023-05-12T04:52:50.446Z,14.28
2023-05-12T04:57:52.201Z,14.51
2023-05-12T05:02:54.567Z,14.04
2023-05-12T05:07:56.662Z,14.60
2023-05-12T05:12:58.636Z,15.05
2023-05-12T05:18:01.959Z,15.29
2023-05-12T05:23:04.308Z,15.31
2023-05-12T05:28:06.620Z,15.27
2023-05-12T05:33:08.608Z,15.43
2023-05-12T05:38:10.575Z,15.79
2023-05-12T05:43:12.815Z,15.78
2023-05-12T05:48:14.879Z,16.19
2023-05-12T05:53:18.592Z,16.92
2023-05-12T05:58:20.491Z,17.52
2023-05-12T06:03:23.610Z,16.47
2023-05-12T06:08:25.380Z,17.94
2023-05-12T06:13:29.147Z,18.52
2023-05-12T06:18:30.889Z,18.95
2023-05-12T06:23:32.578Z,18.12
2023-05-12T06:28:34.394Z,17.73
2023-05-12T06:33:36.829Z,19.38
2023-05-12T06:38:38.503Z,19.73
2023-05-12T06:43:40.116Z,18.75
2023-05-12T06:48:42.090Z,19.73
2023-05-12T06:53:43.764Z,20.30
2023-05-12T06:58:45.517Z,21.69
2023-05-12T07:03:47.160Z,24.56
2023-05-12T07:08:48.897Z,23.35
2023-05-12T07:13:51.194Z,22.41
2023-05-12T07:18:52.931Z,21.38
2023-05-12T07:23:54.674Z,22.73
2023-05-12T07:28:56.454Z,23.32
2023-05-12T07:33:58.118Z,24.43
2023-05-12T07:38:59.794Z,24.32
2023-05-12T07:44:02.346Z,28.03
2023-05-12T07:49:03.982Z,27.96
2023-05-12T07:54:07.213Z,28.35
2023-05-12T07:59:08.859Z,27.57
2023-05-12T08:04:10.750Z,29.45
2023-05-12T08:09:12.575Z,30.69
2023-05-12T08:14:14.175Z,29.54
2023-05-12T08:19:15.935Z,28.22
2023-05-12T08:24:17.913Z,26.63
2023-05-12T08:29:19.517Z,31.16
2023-05-12T08:34:21.267Z,31.94
2023-05-12T08:39:23.001Z,34.27
2023-05-12T08:44:25.421Z,35.02
2023-05-12T08:49:29.494Z,31.74
2023-05-12T08:54:33.435Z,31.04
2023-05-12T08:59:37.947Z,31.85
2023-05-12T09:04:39.745Z,29.38
2023-05-12T09:09:45.735Z,29.79
2023-05-12T09:14:53.830Z,26.01
2023-05-12T09:19:55.569Z,26.25
2023-05-12T09:24:57.372Z,25.84
2023-05-12T09:29:59.963Z,27.62
2023-05-12T09:35:11.410Z,28.59
2023-05-12T09:40:13.898Z,27.21
2023-05-12T09:45:15.640Z,27.42
2023-05-12T09:50:18.919Z,26.29
2023-05-12T09:55:21.125Z,26.58
2023-05-12T10:00:37.007Z,26.33
2023-05-12T10:05:50.924Z,26.05
2023-05-12T10:10:53.922Z,26.25
2023-05-12T10:15:57.624Z,27.00
2023-05-12T10:21:00.719Z,26.09
2023-05-12T10:26:03.432Z,26.26
2023-05-12T10:31:08.263Z,25.23
2023-05-12T10:36:19.730Z,25.64
2023-05-12T10:41:31.813Z,23.93
2023-05-12T10:46:33.609Z,24.93
2023-05-12T10:51:52.266Z,26.88
2023-05-12T10:56:58.697Z,26.35
2023-05-12T11:02:01.787Z,28.23
2023-05-12T11:07:08.037Z,30.02
2023-05-12T11:12:12.103Z,28.60
2023-05-12T11:17:15.070Z,28.68
2023-05-12T11:22:19.905Z,25.24
2023-05-12T11:27:23.466Z,28.37
2023-05-12T11:32:25.753Z,27.36
2023-05-12T11:37:27.660Z,27.62
2023-05-12T11:42:29.360Z,26.06
2023-05-12T11:47:32.989Z,25.26
2023-05-12T11:52:34.706Z,24.72
2023-05-12T11:57:36.490Z,24.49
2023-05-12T12:02:39.936Z,24.40
2023-05-12T12:07:41.738Z,24.50
2023-05-12T12:12:44.473Z,24.06
2023-05-12T12:17:46.178Z,26.88
2023-05-12T12:22:47.814Z,24.62
2023-05-12T12:27:49.537Z,22.46
2023-05-12T12:32:51.292Z,21.94
2023-05-12T12:37:53.043Z,21.90
2023-05-12T12:42:54.811Z,22.13
2023-05-12T12:47:56.559Z,22.13
2023-05-12T12:52:58.222Z,21.97
2023-05-12T12:57:59.857Z,22.15
2023-05-12T13:03:01.812Z,22.18
2023-05-12T13:08:03.842Z,21.75
2023-05-12T13:13:06.203Z,21.88
2023-05-12T13:18:08.021Z,21.96
2023-05-12T13:23:09.677Z,21.90
2023-05-12T13:28:11.298Z,21.64
2023-05-12T13:33:12.967Z,21.69
2023-05-12T13:38:14.616Z,21.88
2023-05-12T13:43:16.322Z,21.57
2023-05-12T13:48:17.980Z,21.49
2023-05-12T13:53:19.693Z,21.65
2023-05-12T13:58:21.289Z,21.21
2023-05-12T14:03:23.213Z,21.53
2023-05-12T14:08:24.903Z,22.08
2023-05-12T14:13:26.518Z,22.42
2023-05-12T14:18:28.182Z,22.70
2023-05-12T14:23:29.856Z,22.21
2023-05-12T14:28:31.541Z,22.27
2023-05-12T14:33:33.297Z,22.31
2023-05-12T14:38:35.208Z,21.65
2023-05-12T14:43:37.246Z,21.30
2023-05-12T14:48:38.847Z,20.96
2023-05-12T14:53:40.515Z,21.24
2023-05-12T14:58:42.176Z,21.31
2023-05-12T15:03:44.415Z,20.81
2023-05-12T15:08:46.080Z,20.09
2023-05-12T15:13:47.803Z,20.53
2023-05-12T15:18:50.197Z,20.65
2023-05-12T15:23:51.841Z,20.55
2023-05-12T15:28:53.476Z,20.42
2023-05-12T15:33:56.520Z,20.92
2023-05-12T15:38:58.178Z,20.55
2023-05-12T15:43:59.887Z,20.96
2023-05-12T15:49:01.904Z,21.06
2023-05-12T15:54:05.567Z,21.48
2023-05-12T15:59:08.061Z,22.39
2023-05-12T16:04:09.845Z,22.78
2023-05-12T16:09:11.696Z,23.21
2023-05-12T16:14:14.035Z,22.47
2023-05-12T16:19:15.846Z,19.11
2023-05-12T16:24:17.750Z,17.58
2023-05-12T16:29:19.371Z,17.05
2023-05-12T16:34:21.303Z,17.07
2023-05-12T16:39:22.959Z,16.19
2023-05-12T16:44:24.741Z,16.42
2023-05-12T16:49:26.387Z,16.61
2023-05-12T16:54:27.999Z,16.85
2023-05-12T16:59:32.336Z,17.76
2023-05-12T17:04:34.492Z,17.57
2023-05-12T17:09:36.465Z,17.49
2023-05-12T17:14:38.394Z,17.27
2023-05-12T17:19:42.085Z,17.37
2023-05-12T17:24:44.593Z,17.18
2023-05-12T17:29:46.367Z,16.95
2023-05-12T17:34:50.560Z,16.55
2023-05-12T17:39:52.553Z,16.42
2023-05-12T17:44:54.200Z,16.40
2023-05-12T17:49:56.613Z,16.33
2023-05-12T17:54:58.405Z,16.29
2023-05-12T18:00:00.554Z,16.44
2023-05-12T18:05:02.411Z,16.31
2023-05-12T18:10:09.994Z,16.60
2023-05-12T18:15:11.896Z,16.61
2023-05-12T18:20:13.750Z,16.33
2023-05-12T18:25:15.466Z,16.47
2023-05-12T18:30:17.198Z,16.35
2023-05-12T18:35:19.669Z,16.01
2023-05-12T18:40:21.926Z,15.68
2023-05-12T18:45:23.868Z,16.02
2023-05-12T18:50:25.643Z,15.67
2023-05-12T18:55:27.255Z,15.49
2023-05-12T19:00:31.990Z,15.31
2023-05-12T19:05:33.622Z,15.30
2023-05-12T19:10:36.716Z,14.94
2023-05-12T19:15:40.260Z,15.14
2023-05-12T19:20:41.885Z,14.79
2023-05-12T19:25:43.697Z,14.81
2023-05-12T19:30:45.376Z,14.36
2023-05-12T19:35:47.543Z,14.18
2023-05-12T19:40:49.170Z,14.47
2023-05-12T19:45:50.938Z,14.42
2023-05-12T19:50:53.996Z,14.32
2023-05-12T19:55:55.654Z,13.85
2023-05-12T20:00:57.353Z,13.79
2023-05-12T20:05:59.036Z,13.70
2023-05-12T20:11:00.685Z,13.57
2023-05-12T20:16:02.699Z,13.36
2023-05-12T20:21:04.404Z,13.16
2023-05-12T20:26:06.746Z,12.92
2023-05-12T20:31:10.173Z,12.52
2023-05-12T20:36:11.967Z,12.47
2023-05-12T20:41:13.847Z,12.38
2023-05-12T20:46:15.670Z,12.59
2023-05-12T20:51:17.395Z,12.65
2023-05-12T20:56:19.791Z,12.67
2023-05-12T21:01:21.470Z,12.73
2023-05-12T21:06:23.178Z,12.68
2023-05-12T21:11:24.819Z,12.49
2023-05-12T21:16:26.503Z,12.46
2023-05-12T21:21:28.709Z,12.12
2023-05-12T21:26:30.348Z,12.33
2023-05-12T21:31:32.131Z,12.28
2023-05-12T21:36:33.740Z,12.13
2023-05-12T21:41:35.837Z,11.84
2023-05-12T21:46:37.816Z,11.76
2023-05-12T21:51:39.493Z,11.46
2023-05-12T21:56:41.099Z,11.09
2023-05-12T22:01:42.747Z,11.19
2023-05-12T22:06:44.598Z,11.60
2023-05-12T22:11:46.468Z,11.21
2023-05-12T22:16:48.119Z,10.94
2023-05-12T22:21:49.772Z,10.91
2023-05-12T22:26:51.597Z,10.89
2023-05-12T22:31:53.209Z,10.83
2023-05-12T22:36:54.896Z,10.84
2023-05-12T22:41:56.567Z,10.93
2023-05-12T22:46:58.254Z,10.85
2023-05-12T22:51:59.913Z,10.65
2023-05-12T22:57:01.554Z,10.42
2023-05-12T23:02:03.168Z,10.25
2023-05-12T23:07:07.048Z,10.13
2023-05-12T23:12:10.631Z,10.24
2023-05-12T23:17:12.304Z,10.35
2023-05-12T23:22:13.919Z,10.31
2023-05-12T23:27:15.591Z,10.35
2023-05-12T23:32:17.340Z,10.13
2023-05-12T23:37:21.854Z,10.13
2023-05-12T23:42:23.445Z,9.98
2023-05-12T23:47:25.152Z,9.92
2023-05-12T23:52:26.822Z,9.71
2023-05-12T23:57:28.480Z,9.74
